sensor_id;sensor_type;location;lat;lon;timestamp;temperature;humidity
16532;DHT22;66872;63.142;14.482;2023-04-24T00:01:28;13.80;1.00
16532;DHT22;66872;63.142;14.482;2023-04-24T00:03:55;13.80;1.00
16532;DHT22;66872;63.142;14.482;2023-04-24T00:06:27;13.80;1.00
16532;DHT22;66872;63.142;14.482;2023-04-24T00:09:01;13.80;1.00
16532;DHT22;66872;63.142;14.482;2023-04-24T00:11:28;13.80;1.00
16532;DHT22;66872;63.142;14.482;2023-04-24T00:13:54;13.80;1.00
16532;DHT22;66872;63.142;14.482;2023-04-24T00:16:19;13.80;1.00
16532;DHT22;66872;63.142;14.482;2023-04-24T00:18:46;13.80;1.00
16532;DHT22;66872;63.142;14.482;2023-04-24T00:21:13;13.80;1.00
16532;DHT22;66872;63.142;14.482;2023-04-24T00:23:40;13.80;1.00
16532;DHT22;66872;63.142;14.482;2023-04-24T00:26:05;13.80;1.00
16532;DHT22;66872;63.142;14.482;2023-04-24T00:28:31;13.80;1.00
16532;DHT22;66872;63.142;14.482;2023-04-24T00:30:57;13.80;1.00
16532;DHT22;66872;63.142;14.482;2023-04-24T00:33:22;13.80;1.00
16532;DHT22;66872;63.142;14.482;2023-04-24T00:35:48;13.80;1.00
16532;DHT22;66872;63.142;14.482;2023-04-24T00:38:14;13.80;1.00
16532;DHT22;66872;63.142;14.482;2023-04-24T00:40:40;13.70;1.00
16532;DHT22;66872;63.142;14.482;2023-04-24T00:43:05;13.80;1.00
16532;DHT22;66872;63.142;14.482;2023-04-24T00:45:31;13.70;1.00
16532;DHT22;66872;63.142;14.482;2023-04-24T00:47:57;13.70;1.00
16532;DHT22;66872;63.142;14.482;2023-04-24T00:50:24;13.70;1.00
16532;DHT22;66872;63.142;14.482;2023-04-24T00:52:50;13.80;1.00
16532;DHT22;66872;63.142;14.482;2023-04-24T00:55:16;13.70;1.00
16532;DHT22;66872;63.142;14.482;2023-04-24T00:57:43;13.70;1.00
16532;DHT22;66872;63.142;14.482;2023-04-24T01:00:09;13.70;1.00
16532;DHT22;66872;63.142;14.482;2023-04-24T01:02:39;13.70;1.00
16532;DHT22;66872;63.142;14.482;2023-04-24T01:05:09;13.70;1.00
16532;DHT22;66872;63.142;14.482;2023-04-24T01:07:35;13.70;1.00
16532;DHT22;66872;63.142;14.482;2023-04-24T01:10:02;13.70;1.00
16532;DHT22;66872;63.142;14.482;2023-04-24T01:12:28;13.70;1.00
16532;DHT22;66872;63.142;14.482;2023-04-24T01:14:54;13.70;1.00
16532;DHT22;66872;63.142;14.482;2023-04-24T01:17:22;13.70;1.00
16532;DHT22;66872;63.142;14.482;2023-04-24T01:19:47;13.70;1.00
16532;DHT22;66872;63.142;14.482;2023-04-24T01:22:16;13.70;1.00
16532;DHT22;66872;63.142;14.482;2023-04-24T01:24:43;13.70;1.00
16532;DHT22;66872;63.142;14.482;2023-04-24T01:27:09;13.70;1.00
16532;DHT22;66872;63.142;14.482;2023-04-24T01:29:36;13.70;1.00
16532;DHT22;66872;63.142;14.482;2023-04-24T01:32:03;13.70;1.00
16532;DHT22;66872;63.142;14.482;2023-04-24T01:34:29;13.70;1.00
16532;DHT22;66872;63.142;14.482;2023-04-24T01:36:55;13.70;1.00
16532;DHT22;66872;63.142;14.482;2023-04-24T01:39:22;13.70;1.00
16532;DHT22;66872;63.142;14.482;2023-04-24T01:41:51;13.70;1.00
16532;DHT22;66872;63.142;14.482;2023-04-24T01:44:17;13.70;1.00
16532;DHT22;66872;63.142;14.482;2023-04-24T01:46:43;13.70;1.00
16532;DHT22;66872;63.142;14.482;2023-04-24T01:49:09;13.70;1.00
16532;DHT22;66872;63.142;14.482;2023-04-24T01:51:35;13.70;1.00
16532;DHT22;66872;63.142;14.482;2023-04-24T01:54:00;13.70;1.00
16532;DHT22;66872;63.142;14.482;2023-04-24T01:56:29;13.70;1.00
16532;DHT22;66872;63.142;14.482;2023-04-24T01:58:56;13.70;1.00
16532;DHT22;66872;63.142;14.482;2023-04-24T02:01:23;13.70;1.00
16532;DHT22;66872;63.142;14.482;2023-04-24T02:03:49;13.70;1.00
16532;DHT22;66872;63.142;14.482;2023-04-24T02:06:15;13.70;1.00
16532;DHT22;66872;63.142;14.482;2023-04-24T02:08:41;13.70;1.00
16532;DHT22;66872;63.142;14.482;2023-04-24T02:11:09;13.70;1.00
16532;DHT22;66872;63.142;14.482;2023-04-24T02:13:35;13.60;1.00
16532;DHT22;66872;63.142;14.482;2023-04-24T02:16:01;13.70;1.00
16532;DHT22;66872;63.142;14.482;2023-04-24T02:18:26;13.60;1.00
16532;DHT22;66872;63.142;14.482;2023-04-24T02:20:52;13.60;1.00
16532;DHT22;66872;63.142;14.482;2023-04-24T02:23:18;13.60;1.00
16532;DHT22;66872;63.142;14.482;2023-04-24T02:25:44;13.60;1.00
16532;DHT22;66872;63.142;14.482;2023-04-24T02:28:09;13.60;1.00
16532;DHT22;66872;63.142;14.482;2023-04-24T02:30:35;13.60;1.00
16532;DHT22;66872;63.142;14.482;2023-04-24T02:33:01;13.60;1.00
16532;DHT22;66872;63.142;14.482;2023-04-24T02:35:26;13.60;1.00
16532;DHT22;66872;63.142;14.482;2023-04-24T02:37:52;13.60;1.00
16532;DHT22;66872;63.142;14.482;2023-04-24T02:40:18;13.60;1.00
16532;DHT22;66872;63.142;14.482;2023-04-24T02:42:43;13.60;1.00
16532;DHT22;66872;63.142;14.482;2023-04-24T02:45:09;13.60;1.00
16532;DHT22;66872;63.142;14.482;2023-04-24T02:47:35;13.60;1.00
16532;DHT22;66872;63.142;14.482;2023-04-24T02:50:02;13.60;1.00
16532;DHT22;66872;63.142;14.482;2023-04-24T02:52:28;13.60;1.00
16532;DHT22;66872;63.142;14.482;2023-04-24T02:54:54;13.70;1.00
16532;DHT22;66872;63.142;14.482;2023-04-24T02:57:19;13.60;1.00
16532;DHT22;66872;63.142;14.482;2023-04-24T02:59:45;13.60;1.00
16532;DHT22;66872;63.142;14.482;2023-04-24T03:02:11;13.60;1.00
16532;DHT22;66872;63.142;14.482;2023-04-24T03:04:36;13.60;1.00
16532;DHT22;66872;63.142;14.482;2023-04-24T03:07:02;13.60;1.00
16532;DHT22;66872;63.142;14.482;2023-04-24T03:09:28;13.60;1.00
16532;DHT22;66872;63.142;14.482;2023-04-24T03:11:53;13.60;1.00
16532;DHT22;66872;63.142;14.482;2023-04-24T03:14:19;13.60;1.00
16532;DHT22;66872;63.142;14.482;2023-04-24T03:16:45;13.60;1.00
16532;DHT22;66872;63.142;14.482;2023-04-24T03:19:10;13.60;1.00
16532;DHT22;66872;63.142;14.482;2023-04-24T03:21:36;13.60;1.00
16532;DHT22;66872;63.142;14.482;2023-04-24T03:24:08;13.60;1.00
16532;DHT22;66872;63.142;14.482;2023-04-24T03:26:35;13.60;1.00
16532;DHT22;66872;63.142;14.482;2023-04-24T03:29:01;13.60;1.00
16532;DHT22;66872;63.142;14.482;2023-04-24T03:31:26;13.60;1.00
16532;DHT22;66872;63.142;14.482;2023-04-24T03:33:52;13.60;1.00
16532;DHT22;66872;63.142;14.482;2023-04-24T03:36:18;13.60;1.00
16532;DHT22;66872;63.142;14.482;2023-04-24T03:38:44;13.60;1.00
16532;DHT22;66872;63.142;14.482;2023-04-24T03:41:11;13.60;1.00
16532;DHT22;66872;63.142;14.482;2023-04-24T03:43:37;13.60;1.00
16532;DHT22;66872;63.142;14.482;2023-04-24T03:46:03;13.60;1.00
16532;DHT22;66872;63.142;14.482;2023-04-24T03:48:29;13.60;1.00
16532;DHT22;66872;63.142;14.482;2023-04-24T03:50:55;13.60;1.00
16532;DHT22;66872;63.142;14.482;2023-04-24T03:53:21;13.60;1.00
16532;DHT22;66872;63.142;14.482;2023-04-24T03:55:47;13.60;1.00
16532;DHT22;66872;63.142;14.482;2023-04-24T03:58:13;13.60;1.00
16532;DHT22;66872;63.142;14.482;2023-04-24T04:00:41;13.60;1.00
16532;DHT22;66872;63.142;14.482;2023-04-24T04:03:07;13.60;1.00
16532;DHT22;66872;63.142;14.482;2023-04-24T04:05:33;13.60;1.00
16532;DHT22;66872;63.142;14.482;2023-04-24T04:07:58;13.70;1.00
16532;DHT22;66872;63.142;14.482;2023-04-24T04:10:24;13.60;1.00
16532;DHT22;66872;63.142;14.482;2023-04-24T04:12:49;13.60;1.00
16532;DHT22;66872;63.142;14.482;2023-04-24T04:15:15;13.60;1.00
16532;DHT22;66872;63.142;14.482;2023-04-24T04:17:41;13.60;1.00
16532;DHT22;66872;63.142;14.482;2023-04-24T04:20:07;13.60;1.00
16532;DHT22;66872;63.142;14.482;2023-04-24T04:22:36;13.60;1.00
16532;DHT22;66872;63.142;14.482;2023-04-24T04:25:03;13.60;1.00
16532;DHT22;66872;63.142;14.482;2023-04-24T04:27:28;13.70;1.00
16532;DHT22;66872;63.142;14.482;2023-04-24T04:30:01;13.70;1.00
16532;DHT22;66872;63.142;14.482;2023-04-24T04:32:31;13.70;1.00
16532;DHT22;66872;63.142;14.482;2023-04-24T04:34:58;13.70;1.00
16532;DHT22;66872;63.142;14.482;2023-04-24T04:37:31;13.70;1.00
16532;DHT22;66872;63.142;14.482;2023-04-24T04:39:58;13.70;1.00
16532;DHT22;66872;63.142;14.482;2023-04-24T04:42:25;13.70;1.00
16532;DHT22;66872;63.142;14.482;2023-04-24T04:44:50;13.70;1.00
16532;DHT22;66872;63.142;14.482;2023-04-24T04:47:17;13.70;1.00
16532;DHT22;66872;63.142;14.482;2023-04-24T04:49:43;13.70;1.00
16532;DHT22;66872;63.142;14.482;2023-04-24T04:52:09;13.70;1.00
16532;DHT22;66872;63.142;14.482;2023-04-24T04:54:35;13.80;1.00
16532;DHT22;66872;63.142;14.482;2023-04-24T04:57:01;13.80;1.00
16532;DHT22;66872;63.142;14.482;2023-04-24T04:59:27;13.80;1.00
16532;DHT22;66872;63.142;14.482;2023-04-24T05:01:53;13.80;1.00
16532;DHT22;66872;63.142;14.482;2023-04-24T05:04:18;13.80;1.00
16532;DHT22;66872;63.142;14.482;2023-04-24T05:06:44;13.80;1.00
16532;DHT22;66872;63.142;14.482;2023-04-24T05:09:10;13.80;1.00
16532;DHT22;66872;63.142;14.482;2023-04-24T05:11:35;13.80;1.00
16532;DHT22;66872;63.142;14.482;2023-04-24T05:14:01;13.80;1.00
16532;DHT22;66872;63.142;14.482;2023-04-24T05:16:27;13.80;1.00
16532;DHT22;66872;63.142;14.482;2023-04-24T05:18:52;13.90;1.00
16532;DHT22;66872;63.142;14.482;2023-04-24T05:21:18;13.90;1.00
16532;DHT22;66872;63.142;14.482;2023-04-24T05:23:44;13.90;1.00
16532;DHT22;66872;63.142;14.482;2023-04-24T05:26:09;13.90;1.00
16532;DHT22;66872;63.142;14.482;2023-04-24T05:28:35;13.90;1.00
16532;DHT22;66872;63.142;14.482;2023-04-24T05:31:02;13.90;1.00
16532;DHT22;66872;63.142;14.482;2023-04-24T05:33:28;13.90;1.00
16532;DHT22;66872;63.142;14.482;2023-04-24T05:35:54;13.90;1.00
16532;DHT22;66872;63.142;14.482;2023-04-24T05:38:20;13.90;1.00
16532;DHT22;66872;63.142;14.482;2023-04-24T05:40:45;13.90;1.00
16532;DHT22;66872;63.142;14.482;2023-04-24T05:43:12;13.90;1.00
16532;DHT22;66872;63.142;14.482;2023-04-24T05:45:38;14.00;1.00
16532;DHT22;66872;63.142;14.482;2023-04-24T05:48:04;14.00;1.00
16532;DHT22;66872;63.142;14.482;2023-04-24T05:50:31;14.00;1.00
16532;DHT22;66872;63.142;14.482;2023-04-24T05:52:56;14.00;1.00
16532;DHT22;66872;63.142;14.482;2023-04-24T05:55:27;14.00;1.00
16532;DHT22;66872;63.142;14.482;2023-04-24T05:57:52;14.00;1.00
16532;DHT22;66872;63.142;14.482;2023-04-24T06:00:18;14.00;1.00
16532;DHT22;66872;63.142;14.482;2023-04-24T06:02:45;14.10;1.00
16532;DHT22;66872;63.142;14.482;2023-04-24T06:05:11;14.10;1.00
16532;DHT22;66872;63.142;14.482;2023-04-24T06:07:37;14.10;1.00
16532;DHT22;66872;63.142;14.482;2023-04-24T06:10:03;14.10;1.00
16532;DHT22;66872;63.142;14.482;2023-04-24T06:12:28;14.10;1.00
16532;DHT22;66872;63.142;14.482;2023-04-24T06:14:54;14.20;1.00
16532;DHT22;66872;63.142;14.482;2023-04-24T06:17:21;14.20;1.00
16532;DHT22;66872;63.142;14.482;2023-04-24T06:19:46;14.20;1.00
16532;DHT22;66872;63.142;14.482;2023-04-24T06:22:12;14.20;1.00
16532;DHT22;66872;63.142;14.482;2023-04-24T06:24:39;14.20;1.00
16532;DHT22;66872;63.142;14.482;2023-04-24T06:27:05;14.20;1.00
16532;DHT22;66872;63.142;14.482;2023-04-24T06:29:30;14.20;1.00
16532;DHT22;66872;63.142;14.482;2023-04-24T06:31:56;14.30;1.00
16532;DHT22;66872;63.142;14.482;2023-04-24T06:34:22;14.30;1.00
16532;DHT22;66872;63.142;14.482;2023-04-24T06:36:47;14.30;1.00
16532;DHT22;66872;63.142;14.482;2023-04-24T06:39:13;14.40;1.00
16532;DHT22;66872;63.142;14.482;2023-04-24T06:41:39;14.40;1.00
16532;DHT22;66872;63.142;14.482;2023-04-24T06:44:05;14.50;1.00
16532;DHT22;66872;63.142;14.482;2023-04-24T06:46:31;14.50;1.00
16532;DHT22;66872;63.142;14.482;2023-04-24T06:48:57;14.50;1.00
16532;DHT22;66872;63.142;14.482;2023-04-24T06:51:26;14.50;1.00
16532;DHT22;66872;63.142;14.482;2023-04-24T06:53:53;14.60;1.00
16532;DHT22;66872;63.142;14.482;2023-04-24T06:56:19;14.60;1.00
16532;DHT22;66872;63.142;14.482;2023-04-24T06:58:46;14.60;1.00
16532;DHT22;66872;63.142;14.482;2023-04-24T07:01:12;14.60;1.00
16532;DHT22;66872;63.142;14.482;2023-04-24T07:03:37;14.70;1.00
16532;DHT22;66872;63.142;14.482;2023-04-24T07:06:04;14.70;1.00
16532;DHT22;66872;63.142;14.482;2023-04-24T07:08:29;14.80;1.00
16532;DHT22;66872;63.142;14.482;2023-04-24T07:10:59;14.80;1.00
16532;DHT22;66872;63.142;14.482;2023-04-24T07:13:25;14.80;1.00
16532;DHT22;66872;63.142;14.482;2023-04-24T07:15:51;14.90;1.00
16532;DHT22;66872;63.142;14.482;2023-04-24T07:18:20;14.90;1.00
16532;DHT22;66872;63.142;14.482;2023-04-24T07:20:46;14.90;1.00
16532;DHT22;66872;63.142;14.482;2023-04-24T07:23:12;15.00;1.00
16532;DHT22;66872;63.142;14.482;2023-04-24T07:25:38;15.00;1.00
16532;DHT22;66872;63.142;14.482;2023-04-24T07:28:04;15.00;1.00
16532;DHT22;66872;63.142;14.482;2023-04-24T07:30:31;15.00;1.00
16532;DHT22;66872;63.142;14.482;2023-04-24T07:32:58;15.10;1.00
16532;DHT22;66872;63.142;14.482;2023-04-24T07:35:24;15.10;1.00
16532;DHT22;66872;63.142;14.482;2023-04-24T07:37:52;15.10;1.00
16532;DHT22;66872;63.142;14.482;2023-04-24T07:40:18;15.20;1.00
16532;DHT22;66872;63.142;14.482;2023-04-24T07:42:44;15.20;1.00
16532;DHT22;66872;63.142;14.482;2023-04-24T07:45:10;15.20;1.00
16532;DHT22;66872;63.142;14.482;2023-04-24T07:47:36;15.20;1.00
16532;DHT22;66872;63.142;14.482;2023-04-24T07:50:03;15.30;1.00
16532;DHT22;66872;63.142;14.482;2023-04-24T07:52:29;15.30;1.00
16532;DHT22;66872;63.142;14.482;2023-04-24T07:54:55;15.30;1.00
16532;DHT22;66872;63.142;14.482;2023-04-24T07:57:24;15.30;1.00
16532;DHT22;66872;63.142;14.482;2023-04-24T07:59:50;15.30;1.00
16532;DHT22;66872;63.142;14.482;2023-04-24T08:02:16;15.40;1.00
16532;DHT22;66872;63.142;14.482;2023-04-24T08:04:42;15.40;1.00
16532;DHT22;66872;63.142;14.482;2023-04-24T08:07:07;15.40;1.00
16532;DHT22;66872;63.142;14.482;2023-04-24T08:09:33;15.50;1.00
16532;DHT22;66872;63.142;14.482;2023-04-24T08:11:59;15.50;1.00
16532;DHT22;66872;63.142;14.482;2023-04-24T08:14:25;15.50;1.00
16532;DHT22;66872;63.142;14.482;2023-04-24T08:16:52;15.50;1.00
16532;DHT22;66872;63.142;14.482;2023-04-24T08:19:17;15.50;1.00
16532;DHT22;66872;63.142;14.482;2023-04-24T08:21:43;15.60;1.00
16532;DHT22;66872;63.142;14.482;2023-04-24T08:24:09;15.60;1.00
16532;DHT22;66872;63.142;14.482;2023-04-24T08:26:34;15.60;1.00
16532;DHT22;66872;63.142;14.482;2023-04-24T08:29:00;15.60;1.00
16532;DHT22;66872;63.142;14.482;2023-04-24T08:31:26;15.60;1.00
16532;DHT22;66872;63.142;14.482;2023-04-24T08:33:52;15.60;1.00
16532;DHT22;66872;63.142;14.482;2023-04-24T08:36:18;15.70;1.00
16532;DHT22;66872;63.142;14.482;2023-04-24T08:38:43;15.60;1.00
16532;DHT22;66872;63.142;14.482;2023-04-24T08:41:11;15.60;1.00
16532;DHT22;66872;63.142;14.482;2023-04-24T08:43:40;15.70;1.00
16532;DHT22;66872;63.142;14.482;2023-04-24T08:46:06;15.70;1.00
16532;DHT22;66872;63.142;14.482;2023-04-24T08:48:31;15.70;1.00
16532;DHT22;66872;63.142;14.482;2023-04-24T08:50:58;15.70;1.00
16532;DHT22;66872;63.142;14.482;2023-04-24T08:53:25;15.70;1.00
16532;DHT22;66872;63.142;14.482;2023-04-24T08:55:51;15.70;1.00
16532;DHT22;66872;63.142;14.482;2023-04-24T08:58:18;15.70;1.00
16532;DHT22;66872;63.142;14.482;2023-04-24T09:00:45;15.70;1.00
16532;DHT22;66872;63.142;14.482;2023-04-24T09:03:14;15.80;1.00
16532;DHT22;66872;63.142;14.482;2023-04-24T09:05:46;15.80;1.00
16532;DHT22;66872;63.142;14.482;2023-04-24T09:08:13;15.80;1.00
16532;DHT22;66872;63.142;14.482;2023-04-24T09:10:40;15.80;1.00
16532;DHT22;66872;63.142;14.482;2023-04-24T09:13:06;15.80;1.00
16532;DHT22;66872;63.142;14.482;2023-04-24T09:15:34;15.80;1.00
16532;DHT22;66872;63.142;14.482;2023-04-24T09:18:01;15.90;1.00
16532;DHT22;66872;63.142;14.482;2023-04-24T09:20:27;15.80;1.00
16532;DHT22;66872;63.142;14.482;2023-04-24T09:22:56;15.80;1.00
16532;DHT22;66872;63.142;14.482;2023-04-24T09:25:23;15.90;1.00
16532;DHT22;66872;63.142;14.482;2023-04-24T09:27:53;15.90;1.00
16532;DHT22;66872;63.142;14.482;2023-04-24T09:30:22;15.90;1.00
16532;DHT22;66872;63.142;14.482;2023-04-24T09:32:48;15.90;1.00
16532;DHT22;66872;63.142;14.482;2023-04-24T09:35:15;15.90;1.00
16532;DHT22;66872;63.142;14.482;2023-04-24T09:37:46;15.90;1.00
16532;DHT22;66872;63.142;14.482;2023-04-24T09:40:18;16.00;1.00
16532;DHT22;66872;63.142;14.482;2023-04-24T09:42:51;16.00;1.00
16532;DHT22;66872;63.142;14.482;2023-04-24T09:45:17;16.00;1.00
16532;DHT22;66872;63.142;14.482;2023-04-24T09:47:42;16.00;1.00
16532;DHT22;66872;63.142;14.482;2023-04-24T09:50:15;16.00;1.00
16532;DHT22;66872;63.142;14.482;2023-04-24T09:52:43;16.10;1.00
16532;DHT22;66872;63.142;14.482;2023-04-24T09:55:27;16.10;1.00
16532;DHT22;66872;63.142;14.482;2023-04-24T09:58:01;16.10;1.00
16532;DHT22;66872;63.142;14.482;2023-04-24T10:00:31;16.10;1.00
16532;DHT22;66872;63.142;14.482;2023-04-24T10:03:04;16.10;1.00
16532;DHT22;66872;63.142;14.482;2023-04-24T10:05:33;16.10;1.00
16532;DHT22;66872;63.142;14.482;2023-04-24T10:08:02;16.10;1.00
16532;DHT22;66872;63.142;14.482;2023-04-24T10:10:30;16.20;1.00
16532;DHT22;66872;63.142;14.482;2023-04-24T10:12:56;16.20;1.00
16532;DHT22;66872;63.142;14.482;2023-04-24T10:15:22;16.20;1.00
16532;DHT22;66872;63.142;14.482;2023-04-24T10:17:49;16.20;1.00
16532;DHT22;66872;63.142;14.482;2023-04-24T10:20:26;16.20;1.00
16532;DHT22;66872;63.142;14.482;2023-04-24T10:22:53;16.20;1.00
16532;DHT22;66872;63.142;14.482;2023-04-24T10:25:27;16.20;1.00
16532;DHT22;66872;63.142;14.482;2023-04-24T10:27:53;16.20;1.00
16532;DHT22;66872;63.142;14.482;2023-04-24T10:30:23;16.30;1.00
16532;DHT22;66872;63.142;14.482;2023-04-24T10:32:49;16.30;1.00
16532;DHT22;66872;63.142;14.482;2023-04-24T10:35:15;16.30;1.00
16532;DHT22;66872;63.142;14.482;2023-04-24T10:37:48;16.30;1.00
16532;DHT22;66872;63.142;14.482;2023-04-24T10:40:26;16.30;1.00
16532;DHT22;66872;63.142;14.482;2023-04-24T10:42:53;16.30;1.00
16532;DHT22;66872;63.142;14.482;2023-04-24T10:45:20;16.30;1.00
16532;DHT22;66872;63.142;14.482;2023-04-24T10:48:05;16.30;1.00
16532;DHT22;66872;63.142;14.482;2023-04-24T10:50:51;16.30;1.00
16532;DHT22;66872;63.142;14.482;2023-04-24T10:53:22;16.30;1.00
16532;DHT22;66872;63.142;14.482;2023-04-24T10:56:05;16.30;1.00
16532;DHT22;66872;63.142;14.482;2023-04-24T11:01:03;16.40;1.00
16532;DHT22;66872;63.142;14.482;2023-04-24T11:03:31;16.30;1.00
16532;DHT22;66872;63.142;14.482;2023-04-24T11:06:07;16.40;1.00
16532;DHT22;66872;63.142;14.482;2023-04-24T11:08:43;16.40;1.00
16532;DHT22;66872;63.142;14.482;2023-04-24T11:11:13;16.40;1.00
16532;DHT22;66872;63.142;14.482;2023-04-24T11:16:24;16.40;1.00
16532;DHT22;66872;63.142;14.482;2023-04-24T11:19:28;16.40;1.00
16532;DHT22;66872;63.142;14.482;2023-04-24T11:32:47;16.50;1.00
16532;DHT22;66872;63.142;14.482;2023-04-24T11:35:21;16.40;1.00
16532;DHT22;66872;63.142;14.482;2023-04-24T11:37:51;16.40;1.00
16532;DHT22;66872;63.142;14.482;2023-04-24T11:40:20;16.40;1.00
16532;DHT22;66872;63.142;14.482;2023-04-24T11:42:50;16.40;1.00
16532;DHT22;66872;63.142;14.482;2023-04-24T11:45:24;16.40;1.00
16532;DHT22;66872;63.142;14.482;2023-04-24T11:47:50;16.40;1.00
16532;DHT22;66872;63.142;14.482;2023-04-24T11:50:18;16.40;1.00
16532;DHT22;66872;63.142;14.482;2023-04-24T11:52:46;16.40;1.00
16532;DHT22;66872;63.142;14.482;2023-04-24T11:57:51;16.40;1.00
16532;DHT22;66872;63.142;14.482;2023-04-24T12:00:23;16.40;1.00
16532;DHT22;66872;63.142;14.482;2023-04-24T12:02:50;16.40;1.00
16532;DHT22;66872;63.142;14.482;2023-04-24T12:05:26;16.40;1.00
16532;DHT22;66872;63.142;14.482;2023-04-24T12:07:53;16.40;1.00
16532;DHT22;66872;63.142;14.482;2023-04-24T12:10:23;16.40;1.00
16532;DHT22;66872;63.142;14.482;2023-04-24T12:12:50;16.40;1.00
16532;DHT22;66872;63.142;14.482;2023-04-24T12:15:18;16.40;1.00
16532;DHT22;66872;63.142;14.482;2023-04-24T12:17:44;16.40;1.00
16532;DHT22;66872;63.142;14.482;2023-04-24T12:20:10;16.40;1.00
16532;DHT22;66872;63.142;14.482;2023-04-24T12:22:57;16.40;1.00
16532;DHT22;66872;63.142;14.482;2023-04-24T12:25:26;16.40;1.00
16532;DHT22;66872;63.142;14.482;2023-04-24T12:28:11;16.40;1.00
16532;DHT22;66872;63.142;14.482;2023-04-24T12:30:44;16.40;1.00
16532;DHT22;66872;63.142;14.482;2023-04-24T12:33:20;16.40;1.00
16532;DHT22;66872;63.142;14.482;2023-04-24T12:35:47;16.40;1.00
16532;DHT22;66872;63.142;14.482;2023-04-24T12:38:13;16.40;1.00
16532;DHT22;66872;63.142;14.482;2023-04-24T12:40:41;16.40;1.00
16532;DHT22;66872;63.142;14.482;2023-04-24T12:43:36;16.40;1.00
16532;DHT22;66872;63.142;14.482;2023-04-24T12:46:02;16.40;1.00
16532;DHT22;66872;63.142;14.482;2023-04-24T12:48:28;16.40;1.00
16532;DHT22;66872;63.142;14.482;2023-04-24T12:50:54;16.40;1.00
16532;DHT22;66872;63.142;14.482;2023-04-24T12:53:22;16.30;1.00
16532;DHT22;66872;63.142;14.482;2023-04-24T12:55:47;16.30;1.00
16532;DHT22;66872;63.142;14.482;2023-04-24T12:58:22;16.40;1.00
16532;DHT22;66872;63.142;14.482;2023-04-24T13:00:48;16.40;1.00
16532;DHT22;66872;63.142;14.482;2023-04-24T13:03:14;16.40;1.00
16532;DHT22;66872;63.142;14.482;2023-04-24T13:05:40;16.40;1.00
16532;DHT22;66872;63.142;14.482;2023-04-24T13:08:06;16.40;1.00
16532;DHT22;66872;63.142;14.482;2023-04-24T13:10:31;16.40;1.00
16532;DHT22;66872;63.142;14.482;2023-04-24T13:12:57;16.40;1.00
16532;DHT22;66872;63.142;14.482;2023-04-24T13:15:23;16.50;1.00
16532;DHT22;66872;63.142;14.482;2023-04-24T13:17:51;16.50;1.00
16532;DHT22;66872;63.142;14.482;2023-04-24T13:20:17;16.50;1.00
16532;DHT22;66872;63.142;14.482;2023-04-24T13:22:43;16.50;1.00
16532;DHT22;66872;63.142;14.482;2023-04-24T13:25:09;16.50;1.00
16532;DHT22;66872;63.142;14.482;2023-04-24T13:27:35;16.50;1.00
16532;DHT22;66872;63.142;14.482;2023-04-24T13:30:01;16.50;1.00
16532;DHT22;66872;63.142;14.482;2023-04-24T13:32:27;16.50;1.00
16532;DHT22;66872;63.142;14.482;2023-04-24T13:34:54;16.60;1.00
16532;DHT22;66872;63.142;14.482;2023-04-24T13:37:19;16.60;1.00
16532;DHT22;66872;63.142;14.482;2023-04-24T13:39:45;16.60;1.00
16532;DHT22;66872;63.142;14.482;2023-04-24T13:42:11;16.60;1.00
16532;DHT22;66872;63.142;14.482;2023-04-24T13:44:37;16.60;1.00
16532;DHT22;66872;63.142;14.482;2023-04-24T13:47:03;16.60;1.00
16532;DHT22;66872;63.142;14.482;2023-04-24T13:49:29;16.60;1.00
16532;DHT22;66872;63.142;14.482;2023-04-24T13:51:55;16.70;1.00
16532;DHT22;66872;63.142;14.482;2023-04-24T13:54:21;16.70;1.00
16532;DHT22;66872;63.142;14.482;2023-04-24T13:56:48;16.70;1.00
16532;DHT22;66872;63.142;14.482;2023-04-24T13:59:14;16.70;1.00
16532;DHT22;66872;63.142;14.482;2023-04-24T14:01:40;16.60;1.00
16532;DHT22;66872;63.142;14.482;2023-04-24T14:04:06;16.50;1.00
16532;DHT22;66872;63.142;14.482;2023-04-24T14:06:32;16.40;1.00
16532;DHT22;66872;63.142;14.482;2023-04-24T14:08:57;16.40;1.00
16532;DHT22;66872;63.142;14.482;2023-04-24T14:11:23;16.40;1.00
16532;DHT22;66872;63.142;14.482;2023-04-24T14:13:49;16.40;1.00
16532;DHT22;66872;63.142;14.482;2023-04-24T14:16:15;16.40;1.00
16532;DHT22;66872;63.142;14.482;2023-04-24T14:18:41;16.40;1.00
16532;DHT22;66872;63.142;14.482;2023-04-24T14:21:06;16.40;1.00
16532;DHT22;66872;63.142;14.482;2023-04-24T14:23:33;16.40;1.00
16532;DHT22;66872;63.142;14.482;2023-04-24T14:25:59;16.40;1.00
16532;DHT22;66872;63.142;14.482;2023-04-24T14:28:25;16.40;1.00
16532;DHT22;66872;63.142;14.482;2023-04-24T14:30:52;16.50;1.00
16532;DHT22;66872;63.142;14.482;2023-04-24T14:33:18;16.40;1.00
16532;DHT22;66872;63.142;14.482;2023-04-24T14:35:43;16.50;1.00
16532;DHT22;66872;63.142;14.482;2023-04-24T14:38:10;16.50;1.00
16532;DHT22;66872;63.142;14.482;2023-04-24T14:40:36;16.50;1.00
16532;DHT22;66872;63.142;14.482;2023-04-24T14:43:02;16.40;1.00
16532;DHT22;66872;63.142;14.482;2023-04-24T14:45:28;16.50;1.00
16532;DHT22;66872;63.142;14.482;2023-04-24T14:47:55;16.40;1.00
16532;DHT22;66872;63.142;14.482;2023-04-24T14:50:21;16.40;1.00
16532;DHT22;66872;63.142;14.482;2023-04-24T14:52:47;16.40;1.00
16532;DHT22;66872;63.142;14.482;2023-04-24T14:55:12;16.40;1.00
16532;DHT22;66872;63.142;14.482;2023-04-24T14:57:39;16.40;1.00
16532;DHT22;66872;63.142;14.482;2023-04-24T15:00:07;16.40;1.00
16532;DHT22;66872;63.142;14.482;2023-04-24T15:02:35;16.40;1.00
16532;DHT22;66872;63.142;14.482;2023-04-24T15:05:03;16.40;1.00
16532;DHT22;66872;63.142;14.482;2023-04-24T15:07:29;16.40;1.00
16532;DHT22;66872;63.142;14.482;2023-04-24T15:09:56;16.40;1.00
16532;DHT22;66872;63.142;14.482;2023-04-24T15:12:22;16.40;1.00
16532;DHT22;66872;63.142;14.482;2023-04-24T15:14:48;16.40;1.00
16532;DHT22;66872;63.142;14.482;2023-04-24T15:17:13;16.40;1.00
16532;DHT22;66872;63.142;14.482;2023-04-24T15:19:39;16.40;1.00
16532;DHT22;66872;63.142;14.482;2023-04-24T15:22:05;16.40;1.00
16532;DHT22;66872;63.142;14.482;2023-04-24T15:24:30;16.40;1.00
16532;DHT22;66872;63.142;14.482;2023-04-24T15:26:56;16.30;1.00
16532;DHT22;66872;63.142;14.482;2023-04-24T15:29:22;16.30;1.00
16532;DHT22;66872;63.142;14.482;2023-04-24T15:31:48;16.30;1.00
16532;DHT22;66872;63.142;14.482;2023-04-24T15:34:14;16.30;1.00
16532;DHT22;66872;63.142;14.482;2023-04-24T15:36:40;16.30;1.00
16532;DHT22;66872;63.142;14.482;2023-04-24T15:39:05;16.30;1.00
16532;DHT22;66872;63.142;14.482;2023-04-24T15:41:31;16.30;1.00
16532;DHT22;66872;63.142;14.482;2023-04-24T15:43:57;16.30;1.00
16532;DHT22;66872;63.142;14.482;2023-04-24T15:46:23;16.30;1.00
16532;DHT22;66872;63.142;14.482;2023-04-24T15:48:48;16.30;1.00